Linda Reed — WDE8222 — position and weather

sailwx.info

Track history (hours):
 
Tides and Currents Weather Stations Pressure Air Temp Water Temp Dewpoint Dewpoint Depression Visibility Wind Speed Wind Dir Waves Ship Positions

Linda Reed

Owner: Crounse Corporation, Maysville, KY. More information available from US FCC via Universal Licensing System and Coast Guard Vessel Documentation Center.

Last reported at 2014-Mar-10 08:33 UTC. Time now 2014-Oct-25 10:18 UTC.
Position N 38°38' W 083°40'.
Warning: this ship's position is months out of date.

Length 45 m.

Type: Tow > 200 m length. MMSI: 367402990.

Date/timePositionNaut miles runAvg speedWind from/ knotsBaromVisibWave heightAir tempDewpointWater temp
2014-Mar-10 08:33N 38°38' W 083°40'11 3.2
2014-Mar-10 05:04N 38°45' W 083°51'2 3.6
2014-Mar-10 04:25N 38°46' W 083°54'7 3.6
2014-Mar-10 02:32N 38°46' W 084°02'4 3.8
2014-Mar-10 01:33N 38°47' W 084°07'3 2.6
2014-Mar-10 00:26N 38°48' W 084°11'2 2.1
2014-Mar-09 23:33N 38°48' W 084°13'2 2.3
2014-Mar-09 22:33N 38°50' W 084°14'3 3.3
2014-Mar-09 21:33N 38°54' W 084°14'3 3.4
2014-Mar-09 20:33N 38°57' W 084°17'3 3.4
2014-Mar-09 19:33N 38°60' W 084°18'3 3.2
2014-Mar-09 18:33N 39°02' W 084°21'4 3.5
2014-Mar-09 17:32N 39°03' W 084°25'3 3.4
2014-Mar-09 16:33N 39°06' W 084°26'3 2.5
2014-Mar-09 15:33N 39°06' W 084°30'3 2.9
2014-Mar-09 14:33N 39°06' W 084°33'3 3.2
2014-Mar-09 13:33N 39°04' W 084°37'3 3.4
2014-Mar-09 12:34N 39°06' W 084°41'4 3.5
2014-Mar-09 11:33N 39°08' W 084°44'3 3.2
2014-Mar-09 10:30N 39°07' W 084°48'  
2014-Mar-04 10:33N 39°05' W 084°51'6 6.2
2014-Mar-04 09:32N 39°08' W 084°44'6 6.4
2014-Mar-04 08:33N 39°04' W 084°38'7 6.5
2014-Mar-04 07:33N 39°06' W 084°29'5 4.7
2014-Mar-04 06:34N 39°03' W 084°25'7 6.5
2014-Mar-04 05:33N 38°60' W 084°18'7 6.9
2014-Mar-04 04:33N 38°53' W 084°14'6 5.9
2014-Mar-04 03:30N 38°48' W 084°11'3 2.8
2014-Mar-04 02:32N 38°47' W 084°07'  
Track history (hours):
 
Tides and Currents Weather Stations Pressure Air Temp Water Temp Dewpoint Dewpoint Depression Visibility Wind Speed Wind Dir Waves Ship Positions

Linda Reed

Owner: Crounse Corporation, Maysville, KY. More information available from US FCC via Universal Licensing System and Coast Guard Vessel Documentation Center.

Last reported at 2014-Mar-10 08:33 UTC. Time now 2014-Oct-25 10:18 UTC.
Position N 38°38' W 083°40'.
Warning: this ship's position is months out of date.

Length 45 m.

Type: Tow > 200 m length. MMSI: 367402990.

Date/timePositionNaut miles runAvg speedWind from/ knotsBaromVisibWave heightAir tempDewpointWater temp
2014-Mar-10 08:33N 38°38' W 083°40'11 3.2
2014-Mar-10 05:04N 38°45' W 083°51'2 3.6
2014-Mar-10 04:25N 38°46' W 083°54'7 3.6
2014-Mar-10 02:32N 38°46' W 084°02'4 3.8
2014-Mar-10 01:33N 38°47' W 084°07'3 2.6
2014-Mar-10 00:26N 38°48' W 084°11'2 2.1
2014-Mar-09 23:33N 38°48' W 084°13'2 2.3
2014-Mar-09 22:33N 38°50' W 084°14'3 3.3
2014-Mar-09 21:33N 38°54' W 084°14'3 3.4
2014-Mar-09 20:33N 38°57' W 084°17'3 3.4
2014-Mar-09 19:33N 38°60' W 084°18'3 3.2
2014-Mar-09 18:33N 39°02' W 084°21'4 3.5
2014-Mar-09 17:32N 39°03' W 084°25'3 3.4
2014-Mar-09 16:33N 39°06' W 084°26'3 2.5
2014-Mar-09 15:33N 39°06' W 084°30'3 2.9
2014-Mar-09 14:33N 39°06' W 084°33'3 3.2
2014-Mar-09 13:33N 39°04' W 084°37'3 3.4
2014-Mar-09 12:34N 39°06' W 084°41'4 3.5
2014-Mar-09 11:33N 39°08' W 084°44'3 3.2
2014-Mar-09 10:30N 39°07' W 084°48'  
2014-Mar-04 10:33N 39°05' W 084°51'6 6.2
2014-Mar-04 09:32N 39°08' W 084°44'6 6.4
2014-Mar-04 08:33N 39°04' W 084°38'7 6.5
2014-Mar-04 07:33N 39°06' W 084°29'5 4.7
2014-Mar-04 06:34N 39°03' W 084°25'7 6.5
2014-Mar-04 05:33N 38°60' W 084°18'7 6.9
2014-Mar-04 04:33N 38°53' W 084°14'6 5.9
2014-Mar-04 03:30N 38°48' W 084°11'3 2.8
2014-Mar-04 02:32N 38°47' W 084°07'  

Dump ship's entire track history